Time;durP1;ratioP1;P1;durP2;ratioP2;P2;SDS_P1;SDS_P2;PMS_P1;PMS_P2;Temp;Humidity;BMP_temperature;BMP_pressure;BME280_temperature;BME280_humidity;BME280_pressure;Samples;Min_cycle;Max_cycle;Signal;HPM_P1;HPM_P2
2022/09/15 00:00:44;;;;;;;;;;;16.70;99.90;;;;;;5076128;28;20337;-83
2022/09/15 00:03:09;;;;;;;;;;;16.70;99.90;;;;;;5077984;28;19999;-82
2022/09/15 00:05:35;;;;;;;;;;;16.70;99.90;;;;;;5060796;28;19919;-83
2022/09/15 00:08:01;;;;;;;;;;;16.70;99.90;;;;;;5068327;28;19916;-82
2022/09/15 00:10:27;;;;;;;;;;;16.60;99.90;;;;;;5047780;28;19916;-84
2022/09/15 00:12:54;;;;;;;;;;;16.70;99.90;;;;;;5078549;28;20106;-84
2022/09/15 00:15:20;;;;;;;;;;;16.60;99.90;;;;;;5066906;28;19920;-83
2022/09/15 00:17:48;;;;;;;;;;;16.60;99.90;;;;;;5070209;28;19913;-83
2022/09/15 00:20:14;;;;;;;;;;;16.60;99.90;;;;;;5067189;28;20542;-82
2022/09/15 00:22:39;;;;;;;;;;;16.60;99.90;;;;;;5071403;28;19913;-82
2022/09/15 00:25:05;;;;;;;;;;;16.60;99.90;;;;;;5066806;28;20518;-84
2022/09/15 00:27:31;;;;;;;;;;;16.60;99.90;;;;;;5065363;28;19923;-82
2022/09/15 00:29:57;;;;;;;;;;;16.70;99.90;;;;;;5065591;28;20794;-83
2022/09/15 00:32:22;;;;;;;;;;;16.60;99.90;;;;;;5073346;28;19963;-83
2022/09/15 00:34:48;;;;;;;;;;;16.70;99.90;;;;;;5065824;28;20304;-82
2022/09/15 00:37:14;;;;;;;;;;;16.70;99.90;;;;;;5070945;28;19913;-82
2022/09/15 00:39:40;;;;;;;;;;;16.70;99.90;;;;;;5057223;28;19949;-83
2022/09/15 00:42:05;;;;;;;;;;;16.70;99.90;;;;;;5069526;28;19972;-83
2022/09/15 00:44:34;;;;;;;;;;;16.70;99.90;;;;;;5066495;28;20006;-84
2022/09/15 00:47:00;;;;;;;;;;;16.70;99.90;;;;;;5073614;28;19962;-83
2022/09/15 00:49:31;;;;;;;;;;;16.70;99.90;;;;;;5062068;28;19920;-82
2022/09/15 00:52:01;;;;;;;;;;;16.70;99.90;;;;;;5061823;28;19921;-83
2022/09/15 00:54:38;;;;;;;;;;;16.70;99.90;;;;;;5066709;28;19952;-83
2022/09/15 00:57:07;;;;;;;;;;;16.70;99.90;;;;;;5073693;28;20268;-83
2022/09/15 00:59:34;;;;;;;;;;;16.70;99.90;;;;;;5065803;28;19996;-82
2022/09/15 01:02:06;;;;;;;;;;;16.70;99.90;;;;;;5072045;28;19970;-82
2022/09/15 01:04:32;;;;;;;;;;;16.60;99.90;;;;;;5074381;28;20512;-83
2022/09/15 01:07:00;;;;;;;;;;;16.60;99.90;;;;;;5067228;28;19916;-82
2022/09/15 01:09:28;;;;;;;;;;;16.60;99.90;;;;;;5073624;28;19916;-82
2022/09/15 01:11:54;;;;;;;;;;;16.60;99.90;;;;;;5057759;28;19916;-83
2022/09/15 01:14:19;;;;;;;;;;;16.60;99.90;;;;;;5072128;28;19923;-83
2022/09/15 01:17:05;;;;;;;;;;;16.60;99.90;;;;;;5054449;28;20396;-82
2022/09/15 01:19:50;;;;;;;;;;;16.60;99.90;;;;;;5056397;28;19939;-82
2022/09/15 01:22:18;;;;;;;;;;;16.70;99.90;;;;;;5068636;28;19917;-83
2022/09/15 01:24:54;;;;;;;;;;;16.70;99.90;;;;;;5073841;28;20171;-83
2022/09/15 01:27:32;;;;;;;;;;;16.70;99.90;;;;;;5057099;28;19959;-83
2022/09/15 01:29:57;;;;;;;;;;;16.70;99.90;;;;;;5073519;28;19966;-81
2022/09/15 01:35:16;;;;;;;;;;;16.60;99.90;;;;;;5060440;28;20011;-83
2022/09/15 01:38:02;;;;;;;;;;;16.60;99.90;;;;;;5076091;28;20288;-83
2022/09/15 01:40:30;;;;;;;;;;;16.60;99.90;;;;;;5067449;28;19945;-83
2022/09/15 01:42:56;;;;;;;;;;;16.60;99.90;;;;;;5065861;28;19919;-84
2022/09/15 01:45:25;;;;;;;;;;;16.60;99.90;;;;;;5062510;28;20586;-83
2022/09/15 01:47:51;;;;;;;;;;;16.60;99.90;;;;;;5072929;28;19986;-83
2022/09/15 01:50:20;;;;;;;;;;;16.60;99.90;;;;;;5062794;28;19966;-82
2022/09/15 01:52:47;;;;;;;;;;;16.60;99.90;;;;;;5069580;28;19979;-82
2022/09/15 01:55:25;;;;;;;;;;;16.60;99.90;;;;;;5069588;28;19962;-83
2022/09/15 01:57:51;;;;;;;;;;;16.60;99.90;;;;;;5073436;28;19923;-83
2022/09/15 02:00:17;;;;;;;;;;;16.60;99.90;;;;;;5075141;28;19913;-81
2022/09/15 02:02:46;;;;;;;;;;;16.60;99.90;;;;;;5072673;28;19913;-83
2022/09/15 02:05:24;;;;;;;;;;;16.60;99.90;;;;;;5059822;28;20017;-84
2022/09/15 02:07:51;;;;;;;;;;;16.60;99.90;;;;;;5068114;28;19917;-84
2022/09/15 02:10:28;;;;;;;;;;;16.60;99.90;;;;;;5073610;28;19936;-84
2022/09/15 02:12:59;;;;;;;;;;;16.50;99.90;;;;;;5075001;28;20514;-83
2022/09/15 02:15:27;;;;;;;;;;;16.50;99.90;;;;;;5072528;28;20117;-83
2022/09/15 02:17:54;;;;;;;;;;;16.50;99.90;;;;;;5071741;28;19920;-83
2022/09/15 02:20:28;;;;;;;;;;;16.50;99.90;;;;;;5072633;28;19925;-84
2022/09/15 02:22:56;;;;;;;;;;;16.50;99.90;;;;;;5069379;28;19917;-83
2022/09/15 02:25:24;;;;;;;;;;;16.50;99.90;;;;;;5068354;28;19920;-83
2022/09/15 02:27:53;;;;;;;;;;;16.60;99.90;;;;;;5076745;28;19919;-83
2022/09/15 02:30:19;;;;;;;;;;;16.50;99.90;;;;;;5076862;28;19959;-82
2022/09/15 02:32:51;;;;;;;;;;;16.50;99.90;;;;;;5077666;28;20257;-84
2022/09/15 02:35:17;;;;;;;;;;;16.40;99.90;;;;;;5068186;28;20320;-84
2022/09/15 02:37:43;;;;;;;;;;;16.50;99.90;;;;;;5074990;28;19960;-83
2022/09/15 02:40:09;;;;;;;;;;;16.50;99.90;;;;;;5063905;28;20426;-83
2022/09/15 02:42:34;;;;;;;;;;;16.50;99.90;;;;;;5073457;28;19912;-84
2022/09/15 02:45:00;;;;;;;;;;;16.50;99.90;;;;;;5064416;28;19964;-83
2022/09/15 02:47:27;;;;;;;;;;;16.50;99.90;;;;;;5069406;28;20295;-82
2022/09/15 02:49:53;;;;;;;;;;;16.50;99.90;;;;;;5058425;28;19923;-83
2022/09/15 02:52:19;;;;;;;;;;;16.40;99.90;;;;;;5069191;28;19976;-84
2022/09/15 02:54:44;;;;;;;;;;;16.40;99.90;;;;;;5076465;28;19944;-82
2022/09/15 02:57:10;;;;;;;;;;;16.40;99.90;;;;;;5075286;28;19920;-82
2022/09/15 03:02:20;;;;;;;;;;;16.40;99.90;;;;;;5065292;28;20403;-82
2022/09/15 03:04:46;;;;;;;;;;;16.40;99.90;;;;;;5067752;28;20024;-83
2022/09/15 03:07:12;;;;;;;;;;;16.40;99.90;;;;;;5058466;28;19957;-82
2022/09/15 03:09:37;;;;;;;;;;;16.40;99.90;;;;;;5056913;28;19951;-83
2022/09/15 03:12:03;;;;;;;;;;;16.40;99.90;;;;;;5051734;28;20366;-83
2022/09/15 03:14:31;;;;;;;;;;;16.40;99.90;;;;;;5069222;28;19939;-82
2022/09/15 03:16:57;;;;;;;;;;;16.40;99.90;;;;;;5053180;28;19943;-82
2022/09/15 03:19:23;;;;;;;;;;;16.30;99.90;;;;;;5072581;28;19955;-82
2022/09/15 03:21:49;;;;;;;;;;;16.30;99.90;;;;;;5079412;28;19923;-82
2022/09/15 03:24:15;;;;;;;;;;;16.30;99.90;;;;;;5078638;28;19916;-83
2022/09/15 03:26:40;;;;;;;;;;;16.30;99.90;;;;;;5060439;28;20022;-82
2022/09/15 03:29:06;;;;;;;;;;;16.30;99.90;;;;;;5059632;28;19985;-82
2022/09/15 03:31:31;;;;;;;;;;;16.30;99.90;;;;;;5059341;28;19917;-82
2022/09/15 03:33:57;;;;;;;;;;;16.30;99.90;;;;;;5063593;28;19913;-82
2022/09/15 03:36:23;;;;;;;;;;;16.30;99.90;;;;;;5068313;28;19948;-83
2022/09/15 03:38:48;;;;;;;;;;;16.30;99.90;;;;;;5071285;28;19917;-82
2022/09/15 03:41:14;;;;;;;;;;;16.20;99.90;;;;;;5071091;28;19920;-82
2022/09/15 03:43:40;;;;;;;;;;;16.20;99.90;;;;;;5064388;28;20535;-82
2022/09/15 03:46:07;;;;;;;;;;;16.20;99.90;;;;;;5073742;28;19923;-81
2022/09/15 03:48:33;;;;;;;;;;;16.20;99.90;;;;;;5079099;28;19941;-83
2022/09/15 03:50:59;;;;;;;;;;;16.20;99.90;;;;;;5074570;28;19946;-82
2022/09/15 03:53:25;;;;;;;;;;;16.20;99.90;;;;;;5075725;28;20384;-83
2022/09/15 03:55:50;;;;;;;;;;;16.20;99.90;;;;;;5070167;28;19920;-82
2022/09/15 03:58:17;;;;;;;;;;;16.20;99.90;;;;;;5069517;28;19913;-83
2022/09/15 04:00:43;;;;;;;;;;;16.20;99.90;;;;;;5074662;28;20518;-82
2022/09/15 04:03:08;;;;;;;;;;;16.20;99.90;;;;;;5071107;28;19916;-82
2022/09/15 04:05:34;;;;;;;;;;;16.20;99.90;;;;;;5075583;28;20030;-82
2022/09/15 04:08:00;;;;;;;;;;;16.10;99.90;;;;;;5077955;28;19928;-81
2022/09/15 04:10:26;;;;;;;;;;;16.10;99.90;;;;;;5072854;28;19924;-81
2022/09/15 04:12:51;;;;;;;;;;;16.10;99.90;;;;;;5059562;28;19909;-81
2022/09/15 04:15:18;;;;;;;;;;;16.10;99.90;;;;;;5070863;28;19958;-81
2022/09/15 04:17:43;;;;;;;;;;;16.10;99.90;;;;;;5070924;28;20000;-82
2022/09/15 04:20:09;;;;;;;;;;;16.10;99.90;;;;;;5070289;28;19917;-82
2022/09/15 04:22:34;;;;;;;;;;;16.10;99.90;;;;;;5065502;28;19924;-82
2022/09/15 04:25:00;;;;;;;;;;;16.00;99.90;;;;;;5056324;28;20384;-82
2022/09/15 04:27:26;;;;;;;;;;;16.00;99.90;;;;;;5074111;28;19916;-82
2022/09/15 04:29:52;;;;;;;;;;;16.00;99.90;;;;;;5056195;28;19912;-82
2022/09/15 04:32:18;;;;;;;;;;;16.00;99.90;;;;;;5073863;28;19967;-81
2022/09/15 04:34:45;;;;;;;;;;;16.00;99.90;;;;;;5070550;28;20480;-81
2022/09/15 04:37:11;;;;;;;;;;;15.90;99.90;;;;;;5056719;28;19920;-81
2022/09/15 04:39:37;;;;;;;;;;;15.90;99.90;;;;;;5070244;28;19913;-81
2022/09/15 04:42:04;;;;;;;;;;;15.80;99.90;;;;;;5069883;28;20019;-81
2022/09/15 04:44:30;;;;;;;;;;;15.70;99.90;;;;;;5034461;28;19974;-82
2022/09/15 04:46:56;;;;;;;;;;;15.70;99.90;;;;;;5069474;28;20433;-81
2022/09/15 04:49:22;;;;;;;;;;;15.70;99.90;;;;;;5071478;28;19917;-82
2022/09/15 04:51:47;;;;;;;;;;;15.60;99.90;;;;;;5069046;28;19917;-81
2022/09/15 04:54:13;;;;;;;;;;;15.60;99.90;;;;;;5061902;28;19916;-81
2022/09/15 04:56:38;;;;;;;;;;;15.60;99.90;;;;;;5066924;28;19978;-80
2022/09/15 04:59:04;;;;;;;;;;;15.60;99.90;;;;;;5070726;28;20157;-81
2022/09/15 05:01:31;;;;;;;;;;;15.60;99.90;;;;;;5066538;28;19917;-82
2022/09/15 05:03:57;;;;;;;;;;;15.50;99.90;;;;;;5053135;28;19921;-82
2022/09/15 05:06:24;;;;;;;;;;;15.50;99.90;;;;;;5043509;28;19921;-82
2022/09/15 05:08:51;;;;;;;;;;;15.40;99.90;;;;;;5056798;28;19959;-81
2022/09/15 05:11:17;;;;;;;;;;;15.40;99.90;;;;;;5066036;28;20364;-81
2022/09/15 05:13:43;;;;;;;;;;;15.40;99.90;;;;;;5056701;28;20606;-82
2022/09/15 05:16:12;;;;;;;;;;;15.40;99.90;;;;;;5047673;28;19917;-83
2022/09/15 05:18:39;;;;;;;;;;;15.30;99.90;;;;;;5055485;28;19916;-82
2022/09/15 05:21:05;;;;;;;;;;;15.30;99.90;;;;;;5050367;28;19913;-82
2022/09/15 05:23:32;;;;;;;;;;;15.30;99.90;;;;;;5049594;28;19924;-83
2022/09/15 05:25:59;;;;;;;;;;;15.20;99.90;;;;;;5067141;28;20377;-83
2022/09/15 05:28:25;;;;;;;;;;;15.10;99.90;;;;;;5047340;28;19913;-83
2022/09/15 05:30:51;;;;;;;;;;;15.10;99.90;;;;;;5066908;28;19916;-83
2022/09/15 05:33:17;;;;;;;;;;;15.10;99.90;;;;;;5063248;28;20042;-82
2022/09/15 05:35:53;;;;;;;;;;;15.00;99.90;;;;;;5056289;28;19917;-82
2022/09/15 05:38:18;;;;;;;;;;;15.00;99.90;;;;;;5059160;28;20452;-83
2022/09/15 05:40:44;;;;;;;;;;;15.00;99.90;;;;;;5049237;28;19913;-83
2022/09/15 05:43:10;;;;;;;;;;;15.00;99.90;;;;;;5064635;28;19919;-83
2022/09/15 05:45:35;;;;;;;;;;;15.00;99.90;;;;;;5065397;28;19927;-82
2022/09/15 05:48:02;;;;;;;;;;;15.00;99.90;;;;;;5055569;28;19919;-82
2022/09/15 05:50:29;;;;;;;;;;;15.00;99.90;;;;;;5070577;28;19920;-81
2022/09/15 05:52:55;;;;;;;;;;;15.00;99.90;;;;;;5061682;28;19928;-82
2022/09/15 05:55:21;;;;;;;;;;;15.00;99.90;;;;;;5051853;28;19920;-82
2022/09/15 05:57:47;;;;;;;;;;;15.00;99.90;;;;;;5069243;28;19912;-82
2022/09/15 06:00:13;;;;;;;;;;;15.00;99.90;;;;;;5067230;28;19919;-81
2022/09/15 06:02:38;;;;;;;;;;;15.00;99.90;;;;;;5072523;28;19940;-81
2022/09/15 06:05:04;;;;;;;;;;;15.00;99.90;;;;;;5068998;28;20003;-81
2022/09/15 06:07:30;;;;;;;;;;;15.00;99.90;;;;;;5072967;28;19924;-82
2022/09/15 06:09:55;;;;;;;;;;;15.00;99.90;;;;;;5054787;28;19924;-82
2022/09/15 06:12:21;;;;;;;;;;;14.90;99.90;;;;;;5057611;28;19962;-81
2022/09/15 06:14:49;;;;;;;;;;;15.00;99.90;;;;;;5067370;28;19960;-83
2022/09/15 06:17:15;;;;;;;;;;;14.90;99.90;;;;;;5050436;28;20004;-82
2022/09/15 06:19:41;;;;;;;;;;;14.90;99.90;;;;;;5050083;28;20493;-83
2022/09/15 06:22:06;;;;;;;;;;;14.90;99.90;;;;;;5072370;28;19961;-82
2022/09/15 06:24:32;;;;;;;;;;;14.90;99.90;;;;;;5049022;28;19932;-82
2022/09/15 06:26:57;;;;;;;;;;;15.00;99.90;;;;;;5067362;28;19917;-81
2022/09/15 06:29:24;;;;;;;;;;;15.00;99.90;;;;;;5060464;28;20087;-81
2022/09/15 06:31:49;;;;;;;;;;;15.10;99.90;;;;;;5069807;28;20011;-82
2022/09/15 06:34:15;;;;;;;;;;;15.00;99.90;;;;;;5063087;28;19970;-83
2022/09/15 06:36:40;;;;;;;;;;;15.10;99.90;;;;;;5064261;28;19931;-81
2022/09/15 06:39:07;;;;;;;;;;;15.10;99.90;;;;;;5068439;28;20392;-82
2022/09/15 06:41:33;;;;;;;;;;;15.10;99.90;;;;;;5058297;28;19919;-82
2022/09/15 06:43:58;;;;;;;;;;;15.10;99.90;;;;;;5054199;28;19928;-82
2022/09/15 06:46:25;;;;;;;;;;;15.10;99.90;;;;;;5061972;28;20411;-81
2022/09/15 06:48:52;;;;;;;;;;;15.10;99.90;;;;;;5069113;28;20342;-82
2022/09/15 06:51:18;;;;;;;;;;;15.10;99.90;;;;;;5070105;28;19916;-81
2022/09/15 06:53:44;;;;;;;;;;;15.10;99.90;;;;;;5070708;28;19925;-83
2022/09/15 06:56:11;;;;;;;;;;;15.00;99.90;;;;;;5071626;28;19946;-81
2022/09/15 06:58:38;;;;;;;;;;;15.00;99.90;;;;;;5071441;28;20483;-82
2022/09/15 07:01:04;;;;;;;;;;;15.00;99.90;;;;;;5051970;28;19921;-81
2022/09/15 07:03:30;;;;;;;;;;;15.00;99.90;;;;;;5063827;28;19924;-81
2022/09/15 07:05:57;;;;;;;;;;;15.00;99.90;;;;;;5069900;28;21544;-81
2022/09/15 07:08:23;;;;;;;;;;;15.00;99.90;;;;;;5064629;28;19917;-81
2022/09/15 07:10:49;;;;;;;;;;;15.00;99.90;;;;;;5064942;28;19921;-81
2022/09/15 07:13:14;;;;;;;;;;;15.00;99.90;;;;;;5061108;28;19970;-81
2022/09/15 07:15:40;;;;;;;;;;;15.00;99.90;;;;;;5051795;28;19920;-81
2022/09/15 07:18:05;;;;;;;;;;;15.00;99.90;;;;;;5061817;28;19923;-82
2022/09/15 07:20:32;;;;;;;;;;;15.00;99.90;;;;;;5047242;28;20328;-81
2022/09/15 07:22:58;;;;;;;;;;;15.00;99.90;;;;;;5068310;28;20329;-81
2022/09/15 07:25:23;;;;;;;;;;;15.00;99.90;;;;;;5050156;28;19933;-81
2022/09/15 07:27:49;;;;;;;;;;;15.00;99.90;;;;;;5067079;28;19955;-81
2022/09/15 07:30:15;;;;;;;;;;;15.00;99.90;;;;;;5031188;28;19917;-81
2022/09/15 07:32:40;;;;;;;;;;;15.00;99.90;;;;;;5050999;28;21106;-82
2022/09/15 07:35:06;;;;;;;;;;;15.00;99.90;;;;;;5071694;28;19923;-81
2022/09/15 07:37:32;;;;;;;;;;;15.00;99.90;;;;;;5045063;28;20640;-81
2022/09/15 07:39:58;;;;;;;;;;;15.10;99.90;;;;;;5072692;28;20315;-81
2022/09/15 07:42:24;;;;;;;;;;;15.10;99.90;;;;;;5029330;28;20010;-81
2022/09/15 07:44:50;;;;;;;;;;;15.10;99.90;;;;;;5062786;28;19962;-81
2022/09/15 07:47:16;;;;;;;;;;;15.00;99.90;;;;;;5051359;28;19912;-81
2022/09/15 07:49:42;;;;;;;;;;;15.10;99.90;;;;;;5051210;28;20007;-82
2022/09/15 07:52:08;;;;;;;;;;;15.10;99.90;;;;;;5053151;28;20536;-81
2022/09/15 07:54:34;;;;;;;;;;;15.10;99.90;;;;;;5070841;28;20455;-81
2022/09/15 07:57:00;;;;;;;;;;;15.10;99.90;;;;;;5054235;28;19917;-83
2022/09/15 07:59:25;;;;;;;;;;;15.10;99.90;;;;;;5063207;28;19920;-81
2022/09/15 08:01:51;;;;;;;;;;;15.10;99.90;;;;;;5030284;28;19925;-82
2022/09/15 08:04:17;;;;;;;;;;;15.00;99.90;;;;;;5049560;28;19943;-81
2022/09/15 08:06:42;;;;;;;;;;;15.10;99.90;;;;;;5059411;28;19917;-81
2022/09/15 08:09:13;;;;;;;;;;;15.00;99.90;;;;;;5036885;28;19917;-80
2022/09/15 08:11:39;;;;;;;;;;;14.90;99.90;;;;;;5049624;28;19923;-81
2022/09/15 08:14:05;;;;;;;;;;;14.90;99.90;;;;;;5043842;28;19917;-81
2022/09/15 08:16:30;;;;;;;;;;;14.80;99.90;;;;;;5072020;28;19917;-81
2022/09/15 08:18:57;;;;;;;;;;;14.80;99.90;;;;;;5063772;28;19919;-81
2022/09/15 08:21:23;;;;;;;;;;;14.70;99.90;;;;;;5052422;28;19917;-81
2022/09/15 08:23:52;;;;;;;;;;;14.60;99.90;;;;;;5054709;28;20604;-82
2022/09/15 08:26:18;;;;;;;;;;;14.60;99.90;;;;;;5060350;28;19934;-82
2022/09/15 08:28:43;;;;;;;;;;;14.60;99.90;;;;;;5048199;28;19921;-82
2022/09/15 08:31:11;;;;;;;;;;;14.50;99.90;;;;;;5063467;28;20288;-81
2022/09/15 08:33:36;;;;;;;;;;;14.50;99.90;;;;;;5053032;28;20318;-80
2022/09/15 08:36:04;;;;;;;;;;;14.40;99.90;;;;;;5058062;28;19970;-81
2022/09/15 08:38:29;;;;;;;;;;;14.50;99.90;;;;;;5065235;28;20369;-80
2022/09/15 08:41:00;;;;;;;;;;;14.50;99.90;;;;;;5062764;28;19920;-81
2022/09/15 08:43:28;;;;;;;;;;;14.50;99.90;;;;;;5069020;28;20014;-82
2022/09/15 08:45:57;;;;;;;;;;;14.60;99.90;;;;;;5075417;28;19924;-83
2022/09/15 08:48:26;;;;;;;;;;;14.60;99.90;;;;;;5064728;28;19966;-83
2022/09/15 08:50:54;;;;;;;;;;;14.80;99.90;;;;;;5072769;28;19917;-81
2022/09/15 08:53:26;;;;;;;;;;;14.90;99.90;;;;;;5052644;28;20015;-82
2022/09/15 08:55:55;;;;;;;;;;;15.00;99.90;;;;;;5063933;28;19912;-82
2022/09/15 08:58:24;;;;;;;;;;;15.20;99.90;;;;;;5066709;28;19956;-82
2022/09/15 09:01:09;;;;;;;;;;;15.20;99.90;;;;;;5062895;28;19909;-81
2022/09/15 09:03:47;;;;;;;;;;;15.30;99.90;;;;;;5066827;28;19920;-84
2022/09/15 09:06:19;;;;;;;;;;;15.40;99.90;;;;;;5068341;28;20936;-84
2022/09/15 09:09:05;;;;;;;;;;;15.50;99.90;;;;;;5045093;28;19917;-84
2022/09/15 09:11:30;;;;;;;;;;;15.60;99.90;;;;;;5047986;28;19913;-82
2022/09/15 09:14:05;;;;;;;;;;;15.60;99.90;;;;;;5041431;28;19920;-82
2022/09/15 09:16:56;;;;;;;;;;;15.60;99.90;;;;;;5040861;28;19959;-83
2022/09/15 09:19:27;;;;;;;;;;;15.50;99.90;;;;;;5062486;28;19919;-82
2022/09/15 09:21:58;;;;;;;;;;;15.50;99.90;;;;;;5067644;28;20003;-83
2022/09/15 09:24:42;;;;;;;;;;;15.50;99.90;;;;;;5067456;28;19955;-82
2022/09/15 09:27:17;;;;;;;;;;;15.50;99.90;;;;;;5044564;28;19917;-83
2022/09/15 09:29:49;;;;;;;;;;;15.50;99.90;;;;;;5060831;28;19952;-82
2022/09/15 09:32:21;;;;;;;;;;;15.40;99.90;;;;;;5058263;28;19967;-82
2022/09/15 09:34:49;;;;;;;;;;;15.40;99.90;;;;;;5054377;28;19919;-82
2022/09/15 09:37:15;;;;;;;;;;;15.40;99.90;;;;;;5062530;28;19912;-83
2022/09/15 09:39:41;;;;;;;;;;;15.40;99.90;;;;;;5048986;28;19920;-82
2022/09/15 09:42:13;;;;;;;;;;;15.40;99.90;;;;;;5059817;28;19983;-83
2022/09/15 09:44:39;;;;;;;;;;;15.50;99.90;;;;;;5057175;28;19952;-82
2022/09/15 09:47:05;;;;;;;;;;;15.60;99.90;;;;;;5055257;28;20274;-82
2022/09/15 09:49:36;;;;;;;;;;;15.70;99.90;;;;;;5021366;28;19917;-83
2022/09/15 09:52:03;;;;;;;;;;;15.80;99.90;;;;;;5059757;28;19920;-82
2022/09/15 09:54:32;;;;;;;;;;;16.00;99.90;;;;;;5060890;28;19912;-82
2022/09/15 09:57:17;;;;;;;;;;;16.20;99.90;;;;;;5067573;28;20003;-82
2022/09/15 09:59:44;;;;;;;;;;;16.30;99.90;;;;;;5061944;28;19913;-83
2022/09/15 10:02:09;;;;;;;;;;;16.40;99.90;;;;;;5057033;28;19916;-83
2022/09/15 10:04:35;;;;;;;;;;;16.40;99.90;;;;;;5062406;28;20350;-83
2022/09/15 10:07:01;;;;;;;;;;;16.50;99.90;;;;;;5050002;28;19912;-83
2022/09/15 10:09:26;;;;;;;;;;;16.50;99.90;;;;;;5055934;28;20003;-83
2022/09/15 10:11:57;;;;;;;;;;;16.60;99.90;;;;;;5041990;28;20392;-83
2022/09/15 10:14:40;;;;;;;;;;;16.60;99.90;;;;;;5039186;28;19966;-83
2022/09/15 10:17:19;;;;;;;;;;;16.60;99.90;;;;;;5059478;28;20003;-83
2022/09/15 10:19:53;;;;;;;;;;;16.60;99.90;;;;;;5056325;28;20380;-83
2022/09/15 10:22:31;;;;;;;;;;;16.80;99.90;;;;;;5038077;28;20299;-82
2022/09/15 10:24:57;;;;;;;;;;;16.80;99.90;;;;;;5065151;28;19916;-83
2022/09/15 10:27:31;;;;;;;;;;;16.90;99.90;;;;;;5059099;28;19916;-83
2022/09/15 10:30:12;;;;;;;;;;;17.00;99.90;;;;;;5054944;28;19913;-83
2022/09/15 10:32:38;;;;;;;;;;;17.00;99.90;;;;;;5032109;28;19967;-83
2022/09/15 10:35:14;;;;;;;;;;;16.90;99.90;;;;;;5052180;28;19920;-82
2022/09/15 10:37:46;;;;;;;;;;;16.90;99.90;;;;;;5038883;28;19913;-82
2022/09/15 10:40:27;;;;;;;;;;;16.80;99.90;;;;;;5048770;28;20015;-83
2022/09/15 10:42:56;;;;;;;;;;;16.70;99.90;;;;;;5059287;28;19917;-84
2022/09/15 10:45:38;;;;;;;;;;;16.70;99.90;;;;;;5053960;28;19916;-83
2022/09/15 10:48:16;;;;;;;;;;;16.60;99.90;;;;;;5065907;28;20292;-83
2022/09/15 10:50:57;;;;;;;;;;;16.60;99.90;;;;;;5045689;28;20001;-83
2022/09/15 10:53:25;;;;;;;;;;;16.60;99.90;;;;;;5053514;28;19929;-83
2022/09/15 10:56:01;;;;;;;;;;;16.70;99.90;;;;;;5061446;28;19912;-83
2022/09/15 10:58:47;;;;;;;;;;;16.70;99.90;;;;;;5065431;28;19913;-83
2022/09/15 11:01:24;;;;;;;;;;;16.70;99.90;;;;;;5056944;28;19917;-83
2022/09/15 11:04:22;;;;;;;;;;;16.70;99.90;;;;;;5045436;28;19916;-83
2022/09/15 11:06:59;;;;;;;;;;;16.70;99.90;;;;;;5053758;28;19917;-82
2022/09/15 11:09:25;;;;;;;;;;;16.70;99.90;;;;;;5061814;28;19917;-82
2022/09/15 11:12:03;;;;;;;;;;;16.80;99.90;;;;;;5062315;28;19920;-83
2022/09/15 11:14:36;;;;;;;;;;;16.80;99.90;;;;;;5058251;28;19932;-82
2022/09/15 11:17:40;;;;;;;;;;;16.80;99.90;;;;;;5065444;28;20082;-83
2022/09/15 11:20:08;;;;;;;;;;;16.80;99.90;;;;;;5049851;28;19912;-83
2022/09/15 11:22:36;;;;;;;;;;;16.80;99.90;;;;;;5047581;28;19998;-83
2022/09/15 11:25:09;;;;;;;;;;;16.80;99.90;;;;;;5047580;28;20304;-83
2022/09/15 11:27:38;;;;;;;;;;;16.80;99.90;;;;;;5057249;28;19912;-83
2022/09/15 11:30:18;;;;;;;;;;;16.80;99.90;;;;;;5049068;28;20000;-83
2022/09/15 11:32:47;;;;;;;;;;;16.80;99.90;;;;;;5064162;28;20000;-83
2022/09/15 11:35:16;;;;;;;;;;;16.80;99.90;;;;;;5068137;28;20348;-83
2022/09/15 11:37:44;;;;;;;;;;;16.90;99.90;;;;;;5050109;28;20030;-83
2022/09/15 11:40:15;;;;;;;;;;;16.90;99.90;;;;;;5066499;28;19912;-83
2022/09/15 11:42:52;;;;;;;;;;;16.90;99.90;;;;;;5052137;28;19913;-84
2022/09/15 11:45:24;;;;;;;;;;;16.90;99.90;;;;;;5052490;28;20301;-82
2022/09/15 11:47:54;;;;;;;;;;;17.00;99.90;;;;;;5046302;28;19942;-83
2022/09/15 11:50:22;;;;;;;;;;;17.10;99.90;;;;;;5068339;28;20304;-82
2022/09/15 11:53:02;;;;;;;;;;;17.10;99.90;;;;;;5068583;28;19912;-82
2022/09/15 11:55:43;;;;;;;;;;;17.10;99.90;;;;;;5066099;28;19927;-82
2022/09/15 11:58:14;;;;;;;;;;;17.20;99.90;;;;;;5064326;28;19940;-83
2022/09/15 12:00:47;;;;;;;;;;;17.20;99.90;;;;;;5077013;28;19912;-84
2022/09/15 12:03:32;;;;;;;;;;;17.20;99.90;;;;;;5066547;28;19951;-84
2022/09/15 12:06:27;;;;;;;;;;;17.20;99.90;;;;;;5067442;28;20499;-84
2022/09/15 12:08:56;;;;;;;;;;;17.30;99.90;;;;;;5056760;28;19966;-83
2022/09/15 12:11:24;;;;;;;;;;;17.30;99.90;;;;;;5055564;28;20391;-84
2022/09/15 12:13:51;;;;;;;;;;;17.30;99.90;;;;;;5071499;28;20481;-83
2022/09/15 12:16:17;;;;;;;;;;;17.30;99.90;;;;;;5074342;28;19924;-84
2022/09/15 12:18:45;;;;;;;;;;;17.30;99.90;;;;;;5045427;28;19952;-84
2022/09/15 12:21:14;;;;;;;;;;;17.40;99.90;;;;;;5047703;28;19959;-84
2022/09/15 12:23:42;;;;;;;;;;;17.50;99.90;;;;;;5050049;28;20457;-83
2022/09/15 12:26:19;;;;;;;;;;;17.60;99.90;;;;;;5053481;28;19924;-83
2022/09/15 12:28:53;;;;;;;;;;;17.60;99.90;;;;;;5070705;28;19917;-83
2022/09/15 12:31:24;;;;;;;;;;;17.70;99.90;;;;;;5060391;28;20007;-82
2022/09/15 12:34:02;;;;;;;;;;;17.70;99.90;;;;;;5066229;28;20290;-83
2022/09/15 12:36:28;;;;;;;;;;;17.70;99.90;;;;;;5059383;28;19935;-82
2022/09/15 12:38:53;;;;;;;;;;;17.70;99.90;;;;;;5068815;28;19916;-83
2022/09/15 12:41:19;;;;;;;;;;;17.60;99.90;;;;;;5048006;28;20300;-82
2022/09/15 12:43:59;;;;;;;;;;;17.60;99.90;;;;;;5034655;28;19978;-82
2022/09/15 12:46:25;;;;;;;;;;;17.50;99.90;;;;;;5050300;28;20321;-82
2022/09/15 12:48:52;;;;;;;;;;;17.50;99.90;;;;;;5069090;28;19923;-82
2022/09/15 12:51:23;;;;;;;;;;;17.50;99.90;;;;;;5068579;28;19966;-82
2022/09/15 12:53:51;;;;;;;;;;;17.50;99.90;;;;;;5047408;28;20023;-82
2022/09/15 12:56:22;;;;;;;;;;;17.60;99.90;;;;;;5058395;28;20043;-82
2022/09/15 12:58:48;;;;;;;;;;;17.60;99.90;;;;;;5057187;28;19919;-82
2022/09/15 13:01:17;;;;;;;;;;;17.50;99.90;;;;;;5059380;28;20011;-82
2022/09/15 13:03:42;;;;;;;;;;;17.50;99.90;;;;;;5046385;28;19916;-82
2022/09/15 13:06:17;;;;;;;;;;;17.30;99.90;;;;;;5063612;28;20321;-81
2022/09/15 13:08:45;;;;;;;;;;;17.20;99.90;;;;;;5058949;28;19913;-81
2022/09/15 13:11:16;;;;;;;;;;;17.10;99.90;;;;;;5065239;28;19913;-82
2022/09/15 13:13:49;;;;;;;;;;;17.00;99.90;;;;;;5061285;28;19916;-81
2022/09/15 13:16:19;;;;;;;;;;;16.90;99.90;;;;;;5058806;28;19917;-81
2022/09/15 13:18:45;;;;;;;;;;;17.00;99.90;;;;;;5071993;28;19920;-81
2022/09/15 13:21:14;;;;;;;;;;;17.10;99.90;;;;;;5060772;28;19916;-81
2022/09/15 13:23:42;;;;;;;;;;;17.20;99.90;;;;;;5061005;28;20365;-80
2022/09/15 13:26:11;;;;;;;;;;;17.30;99.90;;;;;;5060973;28;19916;-81
2022/09/15 13:28:36;;;;;;;;;;;17.20;99.90;;;;;;5065653;28;20478;-81
2022/09/15 13:31:02;;;;;;;;;;;17.20;99.90;;;;;;5063543;28;19999;-81
2022/09/15 13:33:47;;;;;;;;;;;17.30;99.90;;;;;;5062883;28;19959;-81
2022/09/15 13:36:25;;;;;;;;;;;17.40;99.90;;;;;;5049198;28;19920;-81
2022/09/15 13:38:56;;;;;;;;;;;17.30;99.90;;;;;;5055784;28;19912;-81
2022/09/15 13:41:31;;;;;;;;;;;17.30;99.90;;;;;;5058471;28;19920;-81
2022/09/15 13:44:08;;;;;;;;;;;17.20;99.90;;;;;;5052080;28;20003;-81
2022/09/15 13:46:43;;;;;;;;;;;17.10;99.90;;;;;;5065394;28;19965;-81
2022/09/15 13:49:27;;;;;;;;;;;17.10;99.90;;;;;;5059970;28;19921;-81
2022/09/15 13:52:11;;;;;;;;;;;17.10;99.90;;;;;;5046783;28;20414;-82
2022/09/15 13:54:37;;;;;;;;;;;17.00;99.90;;;;;;5069238;28;19919;-82
2022/09/15 13:57:02;;;;;;;;;;;17.00;99.90;;;;;;5051132;28;19980;-81
2022/09/15 13:59:31;;;;;;;;;;;16.90;99.90;;;;;;5066982;28;19913;-80
2022/09/15 14:01:57;;;;;;;;;;;16.90;99.90;;;;;;5068573;28;19912;-83
2022/09/15 14:04:26;;;;;;;;;;;16.90;99.90;;;;;;5052112;28;19924;-80
2022/09/15 14:06:53;;;;;;;;;;;16.80;99.90;;;;;;5055589;28;19948;-80
2022/09/15 14:09:22;;;;;;;;;;;16.80;99.90;;;;;;5064683;28;20353;-81
2022/09/15 14:11:50;;;;;;;;;;;16.80;99.90;;;;;;5063113;28;19936;-81
2022/09/15 14:14:36;;;;;;;;;;;16.80;99.90;;;;;;5047582;28;19996;-80
2022/09/15 14:17:02;;;;;;;;;;;16.80;99.90;;;;;;5049682;28;20317;-82
2022/09/15 14:19:29;;;;;;;;;;;16.80;99.90;;;;;;5064158;28;19923;-81
2022/09/15 14:21:54;;;;;;;;;;;16.80;99.90;;;;;;5065935;28;20900;-81
2022/09/15 14:24:24;;;;;;;;;;;16.80;99.90;;;;;;5064663;28;19924;-79
2022/09/15 14:26:49;;;;;;;;;;;16.80;99.90;;;;;;5062388;28;19976;-80
2022/09/15 14:29:18;;;;;;;;;;;16.70;99.90;;;;;;5069353;28;19998;-80
2022/09/15 14:31:43;;;;;;;;;;;16.70;99.90;;;;;;5067871;28;19913;-80